sensor_id;sensor_type;location;lat;lon;timestamp;P1;durP1;ratioP1;P2;durP2;ratioP2
73632;SDS011;61927;50.080;14.418;2024-03-02T00:00:19;77.55;;;43.45;;
73632;SDS011;61927;50.080;14.418;2024-03-02T00:03:06;81.00;;;41.90;;
73632;SDS011;61927;50.080;14.418;2024-03-02T00:05:34;91.40;;;48.38;;
73632;SDS011;61927;50.080;14.418;2024-03-02T00:08:00;77.55;;;43.67;;
73632;SDS011;61927;50.080;14.418;2024-03-02T00:10:46;78.78;;;42.20;;
73632;SDS011;61927;50.080;14.418;2024-03-02T00:13:11;79.28;;;42.65;;
73632;SDS011;61927;50.080;14.418;2024-03-02T00:15:41;75.93;;;41.40;;
73632;SDS011;61927;50.080;14.418;2024-03-02T00:20:56;80.13;;;42.50;;
73632;SDS011;61927;50.080;14.418;2024-03-02T00:23:23;86.65;;;43.40;;
73632;SDS011;61927;50.080;14.418;2024-03-02T00:25:53;82.28;;;43.92;;
73632;SDS011;61927;50.080;14.418;2024-03-02T00:28:20;85.82;;;45.55;;
73632;SDS011;61927;50.080;14.418;2024-03-02T00:30:51;76.38;;;43.92;;
73632;SDS011;61927;50.080;14.418;2024-03-02T00:33:20;84.82;;;45.20;;
73632;SDS011;61927;50.080;14.418;2024-03-02T00:35:46;84.75;;;42.53;;
73632;SDS011;61927;50.080;14.418;2024-03-02T00:38:12;74.25;;;40.92;;
73632;SDS011;61927;50.080;14.418;2024-03-02T00:40:40;73.20;;;41.05;;
73632;SDS011;61927;50.080;14.418;2024-03-02T00:43:10;84.47;;;41.83;;
73632;SDS011;61927;50.080;14.418;2024-03-02T00:45:57;80.63;;;42.42;;
73632;SDS011;61927;50.080;14.418;2024-03-02T00:48:23;80.10;;;42.20;;
73632;SDS011;61927;50.080;14.418;2024-03-02T00:50:51;78.95;;;42.17;;
73632;SDS011;61927;50.080;14.418;2024-03-02T00:53:18;75.18;;;43.50;;
73632;SDS011;61927;50.080;14.418;2024-03-02T00:55:47;76.45;;;40.47;;
73632;SDS011;61927;50.080;14.418;2024-03-02T00:58:13;86.97;;;42.60;;
73632;SDS011;61927;50.080;14.418;2024-03-02T01:00:39;81.88;;;41.38;;
73632;SDS011;61927;50.080;14.418;2024-03-02T01:03:04;71.40;;;39.25;;
73632;SDS011;61927;50.080;14.418;2024-03-02T01:05:30;81.07;;;39.92;;
73632;SDS011;61927;50.080;14.418;2024-03-02T01:07:56;75.88;;;40.58;;
73632;SDS011;61927;50.080;14.418;2024-03-02T01:10:21;81.10;;;40.97;;
73632;SDS011;61927;50.080;14.418;2024-03-02T01:12:47;81.20;;;40.58;;
73632;SDS011;61927;50.080;14.418;2024-03-02T01:15:13;77.93;;;39.17;;
73632;SDS011;61927;50.080;14.418;2024-03-02T01:17:38;73.03;;;39.85;;
73632;SDS011;61927;50.080;14.418;2024-03-02T01:20:04;71.00;;;38.80;;
73632;SDS011;61927;50.080;14.418;2024-03-02T01:22:33;83.32;;;44.45;;
73632;SDS011;61927;50.080;14.418;2024-03-02T01:24:58;70.13;;;38.40;;
73632;SDS011;61927;50.080;14.418;2024-03-02T01:27:24;65.63;;;37.38;;
73632;SDS011;61927;50.080;14.418;2024-03-02T01:29:49;71.03;;;38.42;;
73632;SDS011;61927;50.080;14.418;2024-03-02T01:32:15;65.25;;;37.80;;
73632;SDS011;61927;50.080;14.418;2024-03-02T01:34:41;66.22;;;38.75;;
73632;SDS011;61927;50.080;14.418;2024-03-02T01:37:06;74.82;;;38.30;;
73632;SDS011;61927;50.080;14.418;2024-03-02T01:39:32;72.85;;;39.53;;
73632;SDS011;61927;50.080;14.418;2024-03-02T01:41:57;72.13;;;39.65;;
73632;SDS011;61927;50.080;14.418;2024-03-02T01:44:23;72.65;;;40.70;;
73632;SDS011;61927;50.080;14.418;2024-03-02T01:46:48;67.05;;;37.97;;
73632;SDS011;61927;50.080;14.418;2024-03-02T01:49:14;68.60;;;39.10;;
73632;SDS011;61927;50.080;14.418;2024-03-02T01:51:40;70.60;;;38.25;;
73632;SDS011;61927;50.080;14.418;2024-03-02T01:54:06;72.78;;;38.80;;
73632;SDS011;61927;50.080;14.418;2024-03-02T01:56:31;70.93;;;39.88;;
73632;SDS011;61927;50.080;14.418;2024-03-02T01:58:57;74.53;;;38.88;;
73632;SDS011;61927;50.080;14.418;2024-03-02T02:01:23;61.60;;;36.83;;
73632;SDS011;61927;50.080;14.418;2024-03-02T02:03:48;67.22;;;37.92;;
73632;SDS011;61927;50.080;14.418;2024-03-02T02:06:14;66.93;;;37.65;;
73632;SDS011;61927;50.080;14.418;2024-03-02T02:08:39;67.90;;;39.03;;
73632;SDS011;61927;50.080;14.418;2024-03-02T02:11:05;77.53;;;40.60;;
73632;SDS011;61927;50.080;14.418;2024-03-02T02:13:31;78.05;;;38.70;;
73632;SDS011;61927;50.080;14.418;2024-03-02T02:16:04;66.90;;;37.70;;
73632;SDS011;61927;50.080;14.418;2024-03-02T02:18:30;66.55;;;38.63;;
73632;SDS011;61927;50.080;14.418;2024-03-02T02:20:56;74.45;;;39.45;;
73632;SDS011;61927;50.080;14.418;2024-03-02T02:23:22;74.18;;;39.17;;
73632;SDS011;61927;50.080;14.418;2024-03-02T02:25:47;72.53;;;38.92;;
73632;SDS011;61927;50.080;14.418;2024-03-02T02:28:13;67.60;;;38.55;;
73632;SDS011;61927;50.080;14.418;2024-03-02T02:30:38;70.50;;;38.63;;
73632;SDS011;61927;50.080;14.418;2024-03-02T02:33:04;71.80;;;38.08;;
73632;SDS011;61927;50.080;14.418;2024-03-02T02:35:29;68.90;;;39.72;;
73632;SDS011;61927;50.080;14.418;2024-03-02T02:37:55;72.18;;;36.72;;
73632;SDS011;61927;50.080;14.418;2024-03-02T02:40:23;67.30;;;37.90;;
73632;SDS011;61927;50.080;14.418;2024-03-02T02:42:49;61.95;;;37.92;;
73632;SDS011;61927;50.080;14.418;2024-03-02T02:45:15;69.43;;;37.67;;
73632;SDS011;61927;50.080;14.418;2024-03-02T02:47:41;90.00;;;41.33;;
73632;SDS011;61927;50.080;14.418;2024-03-02T02:50:07;63.67;;;37.85;;
73632;SDS011;61927;50.080;14.418;2024-03-02T02:52:33;70.97;;;38.60;;
73632;SDS011;61927;50.080;14.418;2024-03-02T02:55:04;66.85;;;38.78;;
73632;SDS011;61927;50.080;14.418;2024-03-02T02:57:34;74.30;;;39.08;;
73632;SDS011;61927;50.080;14.418;2024-03-02T03:00:05;68.18;;;38.08;;
73632;SDS011;61927;50.080;14.418;2024-03-02T03:05:01;67.03;;;36.83;;
73632;SDS011;61927;50.080;14.418;2024-03-02T03:07:27;67.03;;;38.50;;
73632;SDS011;61927;50.080;14.418;2024-03-02T03:09:53;69.25;;;38.35;;
73632;SDS011;61927;50.080;14.418;2024-03-02T03:12:18;82.88;;;39.95;;
73632;SDS011;61927;50.080;14.418;2024-03-02T03:14:44;94.18;;;42.65;;
73632;SDS011;61927;50.080;14.418;2024-03-02T03:17:09;82.35;;;41.22;;
73632;SDS011;61927;50.080;14.418;2024-03-02T03:19:35;78.45;;;41.40;;
73632;SDS011;61927;50.080;14.418;2024-03-02T03:22:01;68.32;;;38.22;;
73632;SDS011;61927;50.080;14.418;2024-03-02T03:24:27;65.07;;;37.75;;
73632;SDS011;61927;50.080;14.418;2024-03-02T03:26:52;69.97;;;38.67;;
73632;SDS011;61927;50.080;14.418;2024-03-02T03:29:18;67.68;;;37.47;;
73632;SDS011;61927;50.080;14.418;2024-03-02T03:31:43;67.45;;;37.80;;
73632;SDS011;61927;50.080;14.418;2024-03-02T03:34:09;67.53;;;37.33;;
73632;SDS011;61927;50.080;14.418;2024-03-02T03:36:34;69.03;;;36.38;;
73632;SDS011;61927;50.080;14.418;2024-03-02T03:39:00;64.90;;;36.88;;
73632;SDS011;61927;50.080;14.418;2024-03-02T03:41:27;57.60;;;34.25;;
73632;SDS011;61927;50.080;14.418;2024-03-02T03:43:52;58.13;;;33.38;;
73632;SDS011;61927;50.080;14.418;2024-03-02T03:46:18;62.83;;;34.83;;
73632;SDS011;61927;50.080;14.418;2024-03-02T03:48:44;60.35;;;33.33;;
73632;SDS011;61927;50.080;14.418;2024-03-02T03:51:09;56.47;;;33.35;;
73632;SDS011;61927;50.080;14.418;2024-03-02T03:53:35;55.83;;;31.98;;
73632;SDS011;61927;50.080;14.418;2024-03-02T03:56:00;52.08;;;30.95;;
73632;SDS011;61927;50.080;14.418;2024-03-02T03:58:26;53.67;;;30.27;;
73632;SDS011;61927;50.080;14.418;2024-03-02T04:00:51;55.75;;;29.20;;
73632;SDS011;61927;50.080;14.418;2024-03-02T04:03:17;54.92;;;30.13;;
73632;SDS011;61927;50.080;14.418;2024-03-02T04:05:42;54.88;;;30.17;;
73632;SDS011;61927;50.080;14.418;2024-03-02T04:08:08;50.80;;;30.02;;
73632;SDS011;61927;50.080;14.418;2024-03-02T04:10:33;54.65;;;31.02;;
73632;SDS011;61927;50.080;14.418;2024-03-02T04:12:59;55.30;;;31.02;;
73632;SDS011;61927;50.080;14.418;2024-03-02T04:15:25;54.00;;;31.20;;
73632;SDS011;61927;50.080;14.418;2024-03-02T04:17:50;58.08;;;30.98;;
73632;SDS011;61927;50.080;14.418;2024-03-02T04:20:16;55.60;;;29.13;;
73632;SDS011;61927;50.080;14.418;2024-03-02T04:22:41;56.22;;;29.33;;
73632;SDS011;61927;50.080;14.418;2024-03-02T04:25:07;47.78;;;28.70;;
73632;SDS011;61927;50.080;14.418;2024-03-02T04:27:33;44.97;;;27.20;;
73632;SDS011;61927;50.080;14.418;2024-03-02T04:29:58;48.97;;;26.30;;
73632;SDS011;61927;50.080;14.418;2024-03-02T04:32:26;46.80;;;24.20;;
73632;SDS011;61927;50.080;14.418;2024-03-02T04:34:52;45.90;;;25.02;;
73632;SDS011;61927;50.080;14.418;2024-03-02T04:37:17;43.60;;;24.15;;
73632;SDS011;61927;50.080;14.418;2024-03-02T04:39:43;43.83;;;23.50;;
73632;SDS011;61927;50.080;14.418;2024-03-02T04:42:09;41.78;;;23.02;;
73632;SDS011;61927;50.080;14.418;2024-03-02T04:44:34;48.50;;;22.98;;
73632;SDS011;61927;50.080;14.418;2024-03-02T04:47:00;33.30;;;20.70;;
73632;SDS011;61927;50.080;14.418;2024-03-02T04:49:26;42.90;;;23.15;;
73632;SDS011;61927;50.080;14.418;2024-03-02T04:51:51;34.95;;;21.75;;
73632;SDS011;61927;50.080;14.418;2024-03-02T04:54:17;38.42;;;21.65;;
73632;SDS011;61927;50.080;14.418;2024-03-02T04:56:42;39.85;;;21.83;;
73632;SDS011;61927;50.080;14.418;2024-03-02T04:59:15;38.22;;;21.80;;
73632;SDS011;61927;50.080;14.418;2024-03-02T05:01:42;38.15;;;21.48;;
73632;SDS011;61927;50.080;14.418;2024-03-02T05:04:08;38.53;;;20.75;;
73632;SDS011;61927;50.080;14.418;2024-03-02T05:06:37;31.63;;;20.38;;
73632;SDS011;61927;50.080;14.418;2024-03-02T05:09:04;32.45;;;19.88;;
73632;SDS011;61927;50.080;14.418;2024-03-02T05:11:29;42.38;;;20.40;;
73632;SDS011;61927;50.080;14.418;2024-03-02T05:14:21;31.73;;;18.58;;
73632;SDS011;61927;50.080;14.418;2024-03-02T05:16:47;31.92;;;18.73;;
73632;SDS011;61927;50.080;14.418;2024-03-02T05:19:12;29.88;;;18.15;;
73632;SDS011;61927;50.080;14.418;2024-03-02T05:21:38;35.22;;;18.98;;
73632;SDS011;61927;50.080;14.418;2024-03-02T05:24:03;30.00;;;18.25;;
73632;SDS011;61927;50.080;14.418;2024-03-02T05:26:29;27.52;;;17.17;;
73632;SDS011;61927;50.080;14.418;2024-03-02T05:28:54;34.97;;;18.20;;
73632;SDS011;61927;50.080;14.418;2024-03-02T05:31:20;29.30;;;18.10;;
73632;SDS011;61927;50.080;14.418;2024-03-02T05:33:46;32.83;;;18.45;;
73632;SDS011;61927;50.080;14.418;2024-03-02T05:36:11;29.42;;;18.63;;
73632;SDS011;61927;50.080;14.418;2024-03-02T05:38:37;32.65;;;18.95;;
73632;SDS011;61927;50.080;14.418;2024-03-02T05:41:03;30.95;;;18.27;;
73632;SDS011;61927;50.080;14.418;2024-03-02T05:43:29;32.33;;;18.70;;
73632;SDS011;61927;50.080;14.418;2024-03-02T05:45:54;29.83;;;17.35;;
73632;SDS011;61927;50.080;14.418;2024-03-02T05:48:20;31.00;;;18.67;;
73632;SDS011;61927;50.080;14.418;2024-03-02T05:50:46;32.72;;;18.63;;
73632;SDS011;61927;50.080;14.418;2024-03-02T05:53:11;33.10;;;19.17;;
73632;SDS011;61927;50.080;14.418;2024-03-02T05:55:37;34.10;;;19.00;;
73632;SDS011;61927;50.080;14.418;2024-03-02T05:58:02;30.33;;;18.23;;
73632;SDS011;61927;50.080;14.418;2024-03-02T06:00:31;34.38;;;18.90;;
73632;SDS011;61927;50.080;14.418;2024-03-02T06:02:57;32.88;;;18.98;;
73632;SDS011;61927;50.080;14.418;2024-03-02T06:05:22;30.17;;;18.08;;
73632;SDS011;61927;50.080;14.418;2024-03-02T06:07:48;26.63;;;16.52;;
73632;SDS011;61927;50.080;14.418;2024-03-02T06:10:13;33.80;;;18.02;;
73632;SDS011;61927;50.080;14.418;2024-03-02T06:12:39;37.53;;;18.27;;
73632;SDS011;61927;50.080;14.418;2024-03-02T06:15:05;29.88;;;18.70;;
73632;SDS011;61927;50.080;14.418;2024-03-02T06:17:32;29.67;;;17.95;;
73632;SDS011;61927;50.080;14.418;2024-03-02T06:19:57;30.27;;;17.73;;
73632;SDS011;61927;50.080;14.418;2024-03-02T06:22:23;29.00;;;17.30;;
73632;SDS011;61927;50.080;14.418;2024-03-02T06:24:50;28.33;;;17.60;;
73632;SDS011;61927;50.080;14.418;2024-03-02T06:27:16;34.03;;;17.95;;
73632;SDS011;61927;50.080;14.418;2024-03-02T06:29:42;31.55;;;18.05;;
73632;SDS011;61927;50.080;14.418;2024-03-02T06:32:07;33.78;;;18.00;;
73632;SDS011;61927;50.080;14.418;2024-03-02T06:34:33;33.25;;;18.38;;
73632;SDS011;61927;50.080;14.418;2024-03-02T06:36:58;26.95;;;17.17;;
73632;SDS011;61927;50.080;14.418;2024-03-02T06:39:24;35.92;;;20.23;;
73632;SDS011;61927;50.080;14.418;2024-03-02T06:41:51;33.72;;;19.48;;
73632;SDS011;61927;50.080;14.418;2024-03-02T06:44:17;37.75;;;18.88;;
73632;SDS011;61927;50.080;14.418;2024-03-02T06:46:43;32.40;;;18.10;;
73632;SDS011;61927;50.080;14.418;2024-03-02T06:49:08;31.80;;;17.40;;
73632;SDS011;61927;50.080;14.418;2024-03-02T06:51:36;35.40;;;17.83;;
73632;SDS011;61927;50.080;14.418;2024-03-02T06:54:01;36.05;;;18.70;;
73632;SDS011;61927;50.080;14.418;2024-03-02T06:56:27;33.13;;;18.38;;
73632;SDS011;61927;50.080;14.418;2024-03-02T06:58:53;33.90;;;17.52;;
73632;SDS011;61927;50.080;14.418;2024-03-02T07:01:18;32.28;;;19.55;;
73632;SDS011;61927;50.080;14.418;2024-03-02T07:03:45;27.67;;;17.77;;
73632;SDS011;61927;50.080;14.418;2024-03-02T07:06:11;32.38;;;18.42;;
73632;SDS011;61927;50.080;14.418;2024-03-02T07:08:36;27.85;;;18.02;;
73632;SDS011;61927;50.080;14.418;2024-03-02T07:11:02;48.78;;;20.42;;
73632;SDS011;61927;50.080;14.418;2024-03-02T07:13:27;29.13;;;17.48;;
73632;SDS011;61927;50.080;14.418;2024-03-02T07:15:53;32.10;;;19.00;;
73632;SDS011;61927;50.080;14.418;2024-03-02T07:18:27;32.17;;;18.83;;
73632;SDS011;61927;50.080;14.418;2024-03-02T07:20:53;31.88;;;18.23;;
73632;SDS011;61927;50.080;14.418;2024-03-02T07:23:18;30.23;;;18.80;;
73632;SDS011;61927;50.080;14.418;2024-03-02T07:25:45;35.33;;;19.95;;
73632;SDS011;61927;50.080;14.418;2024-03-02T07:28:11;30.30;;;18.75;;
73632;SDS011;61927;50.080;14.418;2024-03-02T07:30:37;32.22;;;18.80;;
73632;SDS011;61927;50.080;14.418;2024-03-02T07:33:04;38.88;;;20.48;;
73632;SDS011;61927;50.080;14.418;2024-03-02T07:35:30;33.53;;;18.88;;
73632;SDS011;61927;50.080;14.418;2024-03-02T07:37:56;31.63;;;19.10;;
73632;SDS011;61927;50.080;14.418;2024-03-02T07:40:22;33.28;;;18.75;;
73632;SDS011;61927;50.080;14.418;2024-03-02T07:42:48;30.67;;;18.50;;
73632;SDS011;61927;50.080;14.418;2024-03-02T07:45:14;34.67;;;18.25;;
73632;SDS011;61927;50.080;14.418;2024-03-02T07:47:40;30.45;;;18.00;;
73632;SDS011;61927;50.080;14.418;2024-03-02T07:50:06;32.50;;;18.90;;
73632;SDS011;61927;50.080;14.418;2024-03-02T07:52:32;31.38;;;18.38;;
73632;SDS011;61927;50.080;14.418;2024-03-02T07:54:58;39.00;;;23.23;;
73632;SDS011;61927;50.080;14.418;2024-03-02T07:57:24;40.67;;;20.73;;
73632;SDS011;61927;50.080;14.418;2024-03-02T07:59:50;42.45;;;21.75;;
73632;SDS011;61927;50.080;14.418;2024-03-02T08:02:16;33.35;;;19.10;;
73632;SDS011;61927;50.080;14.418;2024-03-02T08:04:42;30.48;;;18.88;;
73632;SDS011;61927;50.080;14.418;2024-03-02T08:07:07;35.47;;;18.33;;
73632;SDS011;61927;50.080;14.418;2024-03-02T08:09:34;31.52;;;18.17;;
73632;SDS011;61927;50.080;14.418;2024-03-02T08:12:00;33.38;;;18.95;;
73632;SDS011;61927;50.080;14.418;2024-03-02T08:14:26;31.92;;;17.85;;
73632;SDS011;61927;50.080;14.418;2024-03-02T08:16:51;33.38;;;19.95;;
73632;SDS011;61927;50.080;14.418;2024-03-02T08:19:17;30.42;;;17.75;;
73632;SDS011;61927;50.080;14.418;2024-03-02T08:21:43;30.85;;;17.70;;
73632;SDS011;61927;50.080;14.418;2024-03-02T08:24:09;33.05;;;18.25;;
73632;SDS011;61927;50.080;14.418;2024-03-02T08:26:35;28.52;;;17.52;;
73632;SDS011;61927;50.080;14.418;2024-03-02T08:29:01;28.15;;;17.17;;
73632;SDS011;61927;50.080;14.418;2024-03-02T08:31:28;32.10;;;17.40;;
73632;SDS011;61927;50.080;14.418;2024-03-02T08:33:54;30.20;;;16.45;;
73632;SDS011;61927;50.080;14.418;2024-03-02T08:36:20;34.10;;;18.50;;
73632;SDS011;61927;50.080;14.418;2024-03-02T08:38:46;29.95;;;17.17;;
73632;SDS011;61927;50.080;14.418;2024-03-02T08:41:13;30.85;;;17.60;;
73632;SDS011;61927;50.080;14.418;2024-03-02T08:43:40;36.13;;;19.17;;
73632;SDS011;61927;50.080;14.418;2024-03-02T08:46:07;43.80;;;22.33;;
73632;SDS011;61927;50.080;14.418;2024-03-02T08:48:32;33.03;;;19.40;;
73632;SDS011;61927;50.080;14.418;2024-03-02T08:50:58;30.10;;;16.92;;
73632;SDS011;61927;50.080;14.418;2024-03-02T08:53:24;30.13;;;16.70;;
73632;SDS011;61927;50.080;14.418;2024-03-02T08:55:49;27.10;;;16.25;;
73632;SDS011;61927;50.080;14.418;2024-03-02T08:58:15;29.13;;;16.98;;
73632;SDS011;61927;50.080;14.418;2024-03-02T09:00:41;29.40;;;17.63;;
73632;SDS011;61927;50.080;14.418;2024-03-02T09:03:07;26.35;;;16.15;;
73632;SDS011;61927;50.080;14.418;2024-03-02T09:05:32;25.95;;;14.95;;
73632;SDS011;61927;50.080;14.418;2024-03-02T09:07:58;32.30;;;16.35;;
73632;SDS011;61927;50.080;14.418;2024-03-02T09:10:23;34.30;;;17.92;;
73632;SDS011;61927;50.080;14.418;2024-03-02T09:12:49;29.58;;;16.17;;
73632;SDS011;61927;50.080;14.418;2024-03-02T09:15:15;33.00;;;15.55;;
73632;SDS011;61927;50.080;14.418;2024-03-02T09:17:41;28.73;;;14.38;;
73632;SDS011;61927;50.080;14.418;2024-03-02T09:20:06;22.48;;;14.55;;
73632;SDS011;61927;50.080;14.418;2024-03-02T09:22:32;26.70;;;15.93;;
73632;SDS011;61927;50.080;14.418;2024-03-02T09:24:58;24.55;;;16.08;;
73632;SDS011;61927;50.080;14.418;2024-03-02T09:27:24;23.95;;;13.80;;
73632;SDS011;61927;50.080;14.418;2024-03-02T09:29:49;21.95;;;11.45;;
73632;SDS011;61927;50.080;14.418;2024-03-02T09:32:15;24.52;;;12.35;;
73632;SDS011;61927;50.080;14.418;2024-03-02T09:34:41;20.30;;;12.15;;
73632;SDS011;61927;50.080;14.418;2024-03-02T09:37:07;19.75;;;12.05;;
73632;SDS011;61927;50.080;14.418;2024-03-02T09:39:33;20.77;;;11.70;;
73632;SDS011;61927;50.080;14.418;2024-03-02T09:41:58;22.40;;;11.90;;
73632;SDS011;61927;50.080;14.418;2024-03-02T09:44:24;26.83;;;13.98;;
73632;SDS011;61927;50.080;14.418;2024-03-02T09:46:51;25.60;;;15.65;;
73632;SDS011;61927;50.080;14.418;2024-03-02T09:49:17;25.00;;;13.50;;
73632;SDS011;61927;50.080;14.418;2024-03-02T09:51:47;30.08;;;16.17;;
73632;SDS011;61927;50.080;14.418;2024-03-02T09:54:14;31.55;;;16.65;;
73632;SDS011;61927;50.080;14.418;2024-03-02T09:56:40;31.88;;;14.10;;
73632;SDS011;61927;50.080;14.418;2024-03-02T09:59:06;26.92;;;14.15;;
73632;SDS011;61927;50.080;14.418;2024-03-02T10:01:32;29.92;;;14.27;;
73632;SDS011;61927;50.080;14.418;2024-03-02T10:04:01;30.73;;;14.52;;
73632;SDS011;61927;50.080;14.418;2024-03-02T10:06:28;25.33;;;15.18;;
73632;SDS011;61927;50.080;14.418;2024-03-02T10:08:54;28.45;;;17.50;;
73632;SDS011;61927;50.080;14.418;2024-03-02T10:11:27;21.52;;;13.40;;
73632;SDS011;61927;50.080;14.418;2024-03-02T10:14:13;21.33;;;13.23;;
73632;SDS011;61927;50.080;14.418;2024-03-02T10:16:40;23.08;;;13.13;;
73632;SDS011;61927;50.080;14.418;2024-03-02T10:21:46;22.50;;;13.35;;
73632;SDS011;61927;50.080;14.418;2024-03-02T10:24:12;21.13;;;12.40;;
73632;SDS011;61927;50.080;14.418;2024-03-02T10:26:38;40.40;;;13.93;;
73632;SDS011;61927;50.080;14.418;2024-03-02T10:29:04;25.70;;;13.52;;
73632;SDS011;61927;50.080;14.418;2024-03-02T10:31:30;26.42;;;15.50;;
73632;SDS011;61927;50.080;14.418;2024-03-02T10:33:55;24.70;;;13.13;;
73632;SDS011;61927;50.080;14.418;2024-03-02T10:36:22;19.58;;;11.93;;
73632;SDS011;61927;50.080;14.418;2024-03-02T10:38:48;23.33;;;12.65;;
73632;SDS011;61927;50.080;14.418;2024-03-02T10:41:18;34.30;;;20.27;;
73632;SDS011;61927;50.080;14.418;2024-03-02T10:43:44;22.88;;;12.93;;
73632;SDS011;61927;50.080;14.418;2024-03-02T10:46:11;23.60;;;14.10;;
73632;SDS011;61927;50.080;14.418;2024-03-02T10:48:39;23.65;;;12.65;;
73632;SDS011;61927;50.080;14.418;2024-03-02T10:51:06;23.48;;;13.05;;
73632;SDS011;61927;50.080;14.418;2024-03-02T10:53:32;22.05;;;12.40;;
73632;SDS011;61927;50.080;14.418;2024-03-02T10:55:58;23.63;;;11.95;;
73632;SDS011;61927;50.080;14.418;2024-03-02T10:58:29;25.85;;;13.00;;
73632;SDS011;61927;50.080;14.418;2024-03-02T11:01:02;22.52;;;12.63;;
73632;SDS011;61927;50.080;14.418;2024-03-02T11:03:33;22.63;;;12.25;;
73632;SDS011;61927;50.080;14.418;2024-03-02T11:06:03;27.63;;;13.52;;
73632;SDS011;61927;50.080;14.418;2024-03-02T11:08:33;20.40;;;13.00;;
73632;SDS011;61927;50.080;14.418;2024-03-02T11:11:05;23.77;;;12.68;;
73632;SDS011;61927;50.080;14.418;2024-03-02T11:16:03;23.23;;;13.38;;
73632;SDS011;61927;50.080;14.418;2024-03-02T11:18:33;19.55;;;12.85;;
73632;SDS011;61927;50.080;14.418;2024-03-02T11:20:59;22.48;;;12.80;;
73632;SDS011;61927;50.080;14.418;2024-03-02T11:23:33;23.05;;;12.32;;
73632;SDS011;61927;50.080;14.418;2024-03-02T11:28:45;23.30;;;13.73;;
73632;SDS011;61927;50.080;14.418;2024-03-02T11:31:11;18.50;;;12.85;;
73632;SDS011;61927;50.080;14.418;2024-03-02T11:33:37;23.08;;;12.82;;
73632;SDS011;61927;50.080;14.418;2024-03-02T11:36:03;24.42;;;12.77;;
73632;SDS011;61927;50.080;14.418;2024-03-02T11:38:30;25.67;;;16.83;;
73632;SDS011;61927;50.080;14.418;2024-03-02T11:40:59;20.85;;;12.27;;
73632;SDS011;61927;50.080;14.418;2024-03-02T11:43:27;23.33;;;12.13;;
73632;SDS011;61927;50.080;14.418;2024-03-02T11:45:58;18.23;;;11.38;;
73632;SDS011;61927;50.080;14.418;2024-03-02T11:48:29;33.13;;;11.77;;
73632;SDS011;61927;50.080;14.418;2024-03-02T11:50:57;23.33;;;12.38;;
73632;SDS011;61927;50.080;14.418;2024-03-02T11:53:24;24.50;;;15.18;;
73632;SDS011;61927;50.080;14.418;2024-03-02T11:55:55;22.27;;;11.52;;
73632;SDS011;61927;50.080;14.418;2024-03-02T11:58:21;24.88;;;12.98;;
73632;SDS011;61927;50.080;14.418;2024-03-02T12:00:52;26.75;;;12.85;;
73632;SDS011;61927;50.080;14.418;2024-03-02T12:03:21;29.75;;;12.45;;
73632;SDS011;61927;50.080;14.418;2024-03-02T12:05:54;18.90;;;12.23;;
73632;SDS011;61927;50.080;14.418;2024-03-02T12:08:20;26.40;;;12.95;;
73632;SDS011;61927;50.080;14.418;2024-03-02T12:10:57;19.80;;;11.35;;
73632;SDS011;61927;50.080;14.418;2024-03-02T12:13:24;19.92;;;12.60;;
73632;SDS011;61927;50.080;14.418;2024-03-02T12:15:52;28.73;;;13.18;;
73632;SDS011;61927;50.080;14.418;2024-03-02T12:18:20;23.05;;;12.02;;
73632;SDS011;61927;50.080;14.418;2024-03-02T12:20:46;16.38;;;11.07;;
73632;SDS011;61927;50.080;14.418;2024-03-02T12:23:14;21.35;;;13.18;;
73632;SDS011;61927;50.080;14.418;2024-03-02T12:25:40;23.80;;;11.38;;
73632;SDS011;61927;50.080;14.418;2024-03-02T12:28:06;23.38;;;14.32;;
73632;SDS011;61927;50.080;14.418;2024-03-02T12:30:32;16.20;;;10.43;;
73632;SDS011;61927;50.080;14.418;2024-03-02T12:33:00;17.13;;;12.20;;
73632;SDS011;61927;50.080;14.418;2024-03-02T12:35:26;17.90;;;11.10;;
73632;SDS011;61927;50.080;14.418;2024-03-02T12:37:52;25.88;;;11.43;;
73632;SDS011;61927;50.080;14.418;2024-03-02T12:40:19;21.55;;;12.40;;
73632;SDS011;61927;50.080;14.418;2024-03-02T12:42:45;19.52;;;10.93;;
73632;SDS011;61927;50.080;14.418;2024-03-02T12:45:12;23.38;;;11.60;;
73632;SDS011;61927;50.080;14.418;2024-03-02T12:47:39;18.35;;;12.55;;
73632;SDS011;61927;50.080;14.418;2024-03-02T12:50:06;18.85;;;11.68;;
73632;SDS011;61927;50.080;14.418;2024-03-02T12:52:32;30.67;;;14.73;;
73632;SDS011;61927;50.080;14.418;2024-03-02T12:54:59;18.05;;;12.20;;
73632;SDS011;61927;50.080;14.418;2024-03-02T12:57:28;24.10;;;11.70;;
73632;SDS011;61927;50.080;14.418;2024-03-02T12:59:59;15.77;;;10.55;;
73632;SDS011;61927;50.080;14.418;2024-03-02T13:02:30;15.07;;;10.90;;
73632;SDS011;61927;50.080;14.418;2024-03-02T13:04:57;18.63;;;11.27;;
73632;SDS011;61927;50.080;14.418;2024-03-02T13:07:23;20.08;;;11.07;;
73632;SDS011;61927;50.080;14.418;2024-03-02T13:09:51;18.02;;;12.07;;
73632;SDS011;61927;50.080;14.418;2024-03-02T13:12:17;18.60;;;12.05;;
73632;SDS011;61927;50.080;14.418;2024-03-02T13:14:47;23.67;;;14.10;;
73632;SDS011;61927;50.080;14.418;2024-03-02T13:17:13;22.45;;;13.30;;
73632;SDS011;61927;50.080;14.418;2024-03-02T13:19:55;19.95;;;12.55;;
73632;SDS011;61927;50.080;14.418;2024-03-02T13:22:23;19.45;;;11.75;;
73632;SDS011;61927;50.080;14.418;2024-03-02T13:24:50;56.88;;;32.72;;
73632;SDS011;61927;50.080;14.418;2024-03-02T13:27:16;26.52;;;13.18;;
73632;SDS011;61927;50.080;14.418;2024-03-02T13:29:48;21.35;;;13.13;;
73632;SDS011;61927;50.080;14.418;2024-03-02T13:32:14;26.60;;;13.38;;
73632;SDS011;61927;50.080;14.418;2024-03-02T13:34:40;83.07;;;59.13;;
73632;SDS011;61927;50.080;14.418;2024-03-02T13:37:06;26.30;;;18.02;;
73632;SDS011;61927;50.080;14.418;2024-03-02T13:39:32;26.90;;;14.82;;
73632;SDS011;61927;50.080;14.418;2024-03-02T13:42:00;30.40;;;15.45;;
73632;SDS011;61927;50.080;14.418;2024-03-02T13:44:30;33.03;;;21.08;;
73632;SDS011;61927;50.080;14.418;2024-03-02T13:46:55;41.65;;;24.08;;
73632;SDS011;61927;50.080;14.418;2024-03-02T13:49:21;28.50;;;14.98;;
73632;SDS011;61927;50.080;14.418;2024-03-02T13:51:48;24.20;;;13.80;;
73632;SDS011;61927;50.080;14.418;2024-03-02T13:54:14;22.75;;;13.50;;
73632;SDS011;61927;50.080;14.418;2024-03-02T13:56:39;21.35;;;12.93;;
73632;SDS011;61927;50.080;14.418;2024-03-02T13:59:06;23.40;;;15.27;;
73632;SDS011;61927;50.080;14.418;2024-03-02T14:01:32;28.48;;;14.15;;
73632;SDS011;61927;50.080;14.418;2024-03-02T14:03:58;25.25;;;13.02;;
73632;SDS011;61927;50.080;14.418;2024-03-02T14:06:24;23.20;;;13.13;;
73632;SDS011;61927;50.080;14.418;2024-03-02T14:08:52;27.73;;;13.90;;
73632;SDS011;61927;50.080;14.418;2024-03-02T14:11:18;26.30;;;13.15;;
73632;SDS011;61927;50.080;14.418;2024-03-02T14:13:44;28.90;;;12.50;;
73632;SDS011;61927;50.080;14.418;2024-03-02T14:16:14;21.38;;;14.00;;
73632;SDS011;61927;50.080;14.418;2024-03-02T14:18:40;29.65;;;16.20;;